Voorneborg — PCGI — position and weather

sailwx.info

Track history (hours):
 
Tides and Currents Weather Stations Pressure Air Temp Water Temp Dewpoint Dewpoint Depression Visibility Wind Speed Wind Dir Waves Ship Positions

Voorneborg

Last reported at 2017-Nov-24 09:00 UTC. Time now 2017-Nov-24 09:27 UTC.
Position N 38°24' W 009°07'.

Length 132 m; draft 4.9 m.

Type: Cargo ship. MMSI: 245491000.

Date/timePositionNaut miles runAvg speedWind from/ knotsBaromVisibWave heightAir tempDewpointWater temp
2017-Nov-24 09:00N 38°24' W 009°07'510.7
2017-Nov-24 08:30N 38°22' W 009°14'510.7
2017-Nov-24 08:00N 38°23' W 009°20'510.2
2017-Nov-24 07:30N 38°24' W 009°27'510.2
2017-Nov-24 07:00N 38°26' W 009°33'510.3
2017-Nov-24 06:30N 38°26' W 009°40'510.6
2017-Nov-24 06:00N 38°27' W 009°46'510.1
2017-Nov-24 05:30N 38°28' W 009°53'510.2
2017-Nov-24 05:00N 38°29' W 009°59'4 9.0
2017-Nov-24 04:30N 38°32' W 010°04'610.6
2017-Nov-24 03:59N 38°37' W 010°05'510.7
2017-Nov-24 03:30N 38°42' W 010°07'510.8
2017-Nov-24 03:00N 38°48' W 010°06'510.1
2017-Nov-24 02:30N 38°53' W 010°07'5 9.3
2017-Nov-24 02:00N 38°58' W 010°07'5 9.6
2017-Nov-24 01:30N 39°02' W 010°07'510.2
2017-Nov-24 01:00N 39°07' W 010°07'510.3
2017-Nov-24 00:30N 39°13' W 010°07'510.3
2017-Nov-24 00:00N 39°18' W 010°07'  
2017-Nov-19 16:08N 43°34' W 005°42'0 0.3
2017-Nov-19 16:00N 43°34' W 005°42'2 3.7
2017-Nov-19 15:29N 43°35' W 005°40'510.6
2017-Nov-19 15:00N 43°41' W 005°41'510.6
2017-Nov-19 14:30N 43°46' W 005°41'610.8
2017-Nov-19 13:59N 43°51' W 005°41'711.0
2017-Nov-19 13:22N 43°58' W 005°42'14310.9
2017-Nov-19 00:19N 46°21' W 005°51'311.0
2017-Nov-19 00:00N 46°24' W 005°51'811.0
2017-Nov-18 23:19N 46°32' W 005°51'611.1
2017-Nov-18 22:46N 46°38' W 005°52'611.3
2017-Nov-18 22:16N 46°44' W 005°52'311.2
2017-Nov-18 22:00N 46°47' W 005°52'811.3
2017-Nov-18 21:15N 46°55' W 005°53'1211.2
2017-Nov-18 20:10N 47°07' W 005°54'211.6
2017-Nov-18 20:00N 47°09' W 005°54'1412.1
2017-Nov-18 18:53N 47°23' W 005°55'512.4
2017-Nov-18 18:30N 47°27' W 005°55'612.4
2017-Nov-18 17:59N 47°34' W 005°56'1312.2
2017-Nov-18 16:57N 47°46' W 005°56'511.7
2017-Nov-18 16:29N 47°52' W 005°57'611.1
2017-Nov-18 15:56N 47°58' W 005°57'610.7
2017-Nov-18 15:23N 48°04' W 005°57'1210.2
2017-Nov-18 14:11N 48°16' W 005°58'210.2
2017-Nov-18 13:56N 48°19' W 005°58'610.0
2017-Nov-18 13:21N 48°24' W 005°59'810.2
2017-Nov-18 12:37N 48°32' W 005°58'110.6
2017-Nov-18 12:30N 48°33' W 005°58'710.7
2017-Nov-18 11:51N 48°40' W 005°57'3111.6
2017-Nov-18 09:11N 49°03' W 005°26'512.7
2017-Nov-18 08:47N 49°06' W 005°19'1012.2
2017-Nov-18 07:55N 49°11' W 005°05'1111.6
2017-Nov-18 07:01N 49°16' W 004°52'411.0
2017-Nov-18 06:39N 49°18' W 004°46'310.6
2017-Nov-18 06:25N 49°20' W 004°43'610.4
2017-Nov-18 05:49N 49°23' W 004°35'9 9.9
2017-Nov-18 04:57N 49°27' W 004°23'9 9.8
2017-Nov-18 04:01N 49°32' W 004°11'0 0.0
2017-Nov-18 04:00N 49°32' W 004°11'3411.1
2017-Nov-18 01:00N 49°50' W 003°28'612.8
2017-Nov-18 00:30N 49°53' W 003°19'612.9
2017-Nov-18 00:00N 49°56' W 003°10'612.9
2017-Nov-17 23:30N 49°59' W 003°02'612.3
2017-Nov-17 23:00N 50°01' W 002°52'811.9
2017-Nov-17 22:18N 50°03' W 002°40'31 9.2
2017-Nov-17 18:54N 50°12' W 001°53'3 8.1
2017-Nov-17 18:30N 50°13' W 001°48'4 8.4
2017-Nov-17 18:00N 50°14' W 001°42'4 9.1
2017-Nov-17 17:30N 50°15' W 001°35'5 9.9
2017-Nov-17 17:00N 50°16' W 001°27'4112.9
2017-Nov-17 13:48N 50°28' W 000°25'413.4
2017-Nov-17 13:30N 50°29' W 000°19'713.1
2017-Nov-17 13:00N 50°30' W 000°09'612.9
2017-Nov-17 12:30N 50°32' E 000°01'612.7
2017-Nov-17 12:00N 50°34' E 000°10'612.5
2017-Nov-17 11:30N 50°35' E 000°20'612.0
2017-Nov-17 11:01N 50°37' E 000°29'611.5
2017-Nov-17 10:31N 50°40' E 000°37'611.3
2017-Nov-17 10:01N 50°43' E 000°44'611.2
2017-Nov-17 09:31N 50°46' E 000°51'510.9
2017-Nov-17 09:00N 50°49' E 000°58'611.0
2017-Nov-17 08:31N 50°52' E 001°05'611.7
2017-Nov-17 08:01N 50°56' E 001°12'713.2
2017-Nov-17 07:29N 51°01' E 001°21'715.7
2017-Nov-17 07:00N 51°05' E 001°30'816.3
2017-Nov-17 06:30N 51°11' E 001°40'815.0
2017-Nov-17 06:00N 51°16' E 001°48'713.8
2017-Nov-17 05:30N 51°22' E 001°53'612.8
2017-Nov-17 05:00N 51°28' E 001°59'612.0
2017-Nov-17 04:30N 51°33' E 002°04'25410.2
2017-Nov-16 03:36N 54°02' E 007°45'211.3
2017-Nov-16 03:25N 54°02' E 007°48'511.7
2017-Nov-16 03:00N 54°01' E 007°56'711.9
2017-Nov-16 02:26N 54°01' E 008°08'511.2
2017-Nov-16 02:00N 54°00' E 008°16'714.4
2017-Nov-16 01:30N 53°59' E 008°28'714.5
2017-Nov-16 01:00N 53°56' E 008°39'713.4
2017-Nov-16 00:30N 53°51' E 008°46'611.5
2017-Nov-16 00:00N 53°51' E 008°56'510.2
2017-Nov-15 23:30N 53°52' E 009°04'3 6.2
2017-Nov-15 23:01N 53°54' E 009°09'0 0.0
2017-Nov-15 22:31N 53°54' E 009°09'1 1.3
2017-Nov-15 22:00N 53°54' E 009°10'3 5.7
2017-Nov-15 21:31N 53°56' E 009°13'4 7.8
2017-Nov-15 21:01N 53°59' E 009°17'4 8.2
2017-Nov-15 20:31N 54°03' E 009°18'4 8.1
2017-Nov-15 20:01N 54°07' E 009°20'3 5.3
2017-Nov-15 19:31N 54°09' E 009°23'3 6.9
2017-Nov-15 19:01N 54°11' E 009°28'3 6.4
2017-Nov-15 18:31N 54°12' E 009°33'0 0.0
2017-Nov-15 18:00N 54°12' E 009°33'1 1.2
2017-Nov-15 17:30N 54°12' E 009°34'3 6.0
2017-Nov-15 17:01N 54°15' E 009°37'4 7.3
2017-Nov-15 16:31N 54°18' E 009°41'4 7.1
2017-Nov-15 16:01N 54°20' E 009°45'21 4.3
2017-Nov-15 11:09N 54°30' E 010°17'1 9.8
2017-Nov-15 11:00N 54°30' E 010°19'610.8
2017-Nov-15 10:29N 54°32' E 010°28'511.3
2017-Nov-15 10:01N 54°34' E 010°36'611.6
2017-Nov-15 09:31N 54°35' E 010°46'611.7
2017-Nov-15 09:01N 54°36' E 010°56'612.0
2017-Nov-15 08:31N 54°36' E 011°07'611.4
2017-Nov-15 08:00N 54°35' E 011°16'611.3
2017-Nov-15 07:31N 54°32' E 011°25'510.8
2017-Nov-15 07:01N 54°30' E 011°33'611.1
2017-Nov-15 06:30N 54°27' E 011°42'811.0
2017-Nov-15 05:46N 54°26' E 011°56'311.0
2017-Nov-15 05:30N 54°26' E 012°01'611.0
2017-Nov-15 05:00N 54°28' E 012°10'611.3
2017-Nov-15 04:31N 54°33' E 012°13'2110.7
2017-Nov-15 02:33N 54°46' E 012°41'411.0
2017-Nov-15 02:11N 54°47' E 012°48'  
Track history (hours):
 
Tides and Currents Weather Stations Pressure Air Temp Water Temp Dewpoint Dewpoint Depression Visibility Wind Speed Wind Dir Waves Ship Positions

Voorneborg

Last reported at 2017-Nov-24 09:00 UTC. Time now 2017-Nov-24 09:27 UTC.
Position N 38°24' W 009°07'.

Length 132 m; draft 4.9 m.

Type: Cargo ship. MMSI: 245491000.

Date/timePositionNaut miles runAvg speedWind from/ knotsBaromVisibWave heightAir tempDewpointWater temp
2017-Nov-24 09:00N 38°24' W 009°07'510.7
2017-Nov-24 08:30N 38°22' W 009°14'510.7
2017-Nov-24 08:00N 38°23' W 009°20'510.2
2017-Nov-24 07:30N 38°24' W 009°27'510.2
2017-Nov-24 07:00N 38°26' W 009°33'510.3
2017-Nov-24 06:30N 38°26' W 009°40'510.6
2017-Nov-24 06:00N 38°27' W 009°46'510.1
2017-Nov-24 05:30N 38°28' W 009°53'510.2
2017-Nov-24 05:00N 38°29' W 009°59'4 9.0
2017-Nov-24 04:30N 38°32' W 010°04'610.6
2017-Nov-24 03:59N 38°37' W 010°05'510.7
2017-Nov-24 03:30N 38°42' W 010°07'510.8
2017-Nov-24 03:00N 38°48' W 010°06'510.1
2017-Nov-24 02:30N 38°53' W 010°07'5 9.3
2017-Nov-24 02:00N 38°58' W 010°07'5 9.6
2017-Nov-24 01:30N 39°02' W 010°07'510.2
2017-Nov-24 01:00N 39°07' W 010°07'510.3
2017-Nov-24 00:30N 39°13' W 010°07'510.3
2017-Nov-24 00:00N 39°18' W 010°07'  
2017-Nov-19 16:08N 43°34' W 005°42'0 0.3
2017-Nov-19 16:00N 43°34' W 005°42'2 3.7
2017-Nov-19 15:29N 43°35' W 005°40'510.6
2017-Nov-19 15:00N 43°41' W 005°41'510.6
2017-Nov-19 14:30N 43°46' W 005°41'610.8
2017-Nov-19 13:59N 43°51' W 005°41'711.0
2017-Nov-19 13:22N 43°58' W 005°42'14310.9
2017-Nov-19 00:19N 46°21' W 005°51'311.0
2017-Nov-19 00:00N 46°24' W 005°51'811.0
2017-Nov-18 23:19N 46°32' W 005°51'611.1
2017-Nov-18 22:46N 46°38' W 005°52'611.3
2017-Nov-18 22:16N 46°44' W 005°52'311.2
2017-Nov-18 22:00N 46°47' W 005°52'811.3
2017-Nov-18 21:15N 46°55' W 005°53'1211.2
2017-Nov-18 20:10N 47°07' W 005°54'211.6
2017-Nov-18 20:00N 47°09' W 005°54'1412.1
2017-Nov-18 18:53N 47°23' W 005°55'512.4
2017-Nov-18 18:30N 47°27' W 005°55'612.4
2017-Nov-18 17:59N 47°34' W 005°56'1312.2
2017-Nov-18 16:57N 47°46' W 005°56'511.7
2017-Nov-18 16:29N 47°52' W 005°57'611.1
2017-Nov-18 15:56N 47°58' W 005°57'610.7
2017-Nov-18 15:23N 48°04' W 005°57'1210.2
2017-Nov-18 14:11N 48°16' W 005°58'210.2
2017-Nov-18 13:56N 48°19' W 005°58'610.0
2017-Nov-18 13:21N 48°24' W 005°59'810.2
2017-Nov-18 12:37N 48°32' W 005°58'110.6
2017-Nov-18 12:30N 48°33' W 005°58'710.7
2017-Nov-18 11:51N 48°40' W 005°57'3111.6
2017-Nov-18 09:11N 49°03' W 005°26'512.7
2017-Nov-18 08:47N 49°06' W 005°19'1012.2
2017-Nov-18 07:55N 49°11' W 005°05'1111.6
2017-Nov-18 07:01N 49°16' W 004°52'411.0
2017-Nov-18 06:39N 49°18' W 004°46'310.6
2017-Nov-18 06:25N 49°20' W 004°43'610.4
2017-Nov-18 05:49N 49°23' W 004°35'9 9.9
2017-Nov-18 04:57N 49°27' W 004°23'9 9.8
2017-Nov-18 04:01N 49°32' W 004°11'0 0.0
2017-Nov-18 04:00N 49°32' W 004°11'3411.1
2017-Nov-18 01:00N 49°50' W 003°28'612.8
2017-Nov-18 00:30N 49°53' W 003°19'612.9
2017-Nov-18 00:00N 49°56' W 003°10'612.9
2017-Nov-17 23:30N 49°59' W 003°02'612.3
2017-Nov-17 23:00N 50°01' W 002°52'811.9
2017-Nov-17 22:18N 50°03' W 002°40'31 9.2
2017-Nov-17 18:54N 50°12' W 001°53'3 8.1
2017-Nov-17 18:30N 50°13' W 001°48'4 8.4
2017-Nov-17 18:00N 50°14' W 001°42'4 9.1
2017-Nov-17 17:30N 50°15' W 001°35'5 9.9
2017-Nov-17 17:00N 50°16' W 001°27'4112.9
2017-Nov-17 13:48N 50°28' W 000°25'413.4
2017-Nov-17 13:30N 50°29' W 000°19'713.1
2017-Nov-17 13:00N 50°30' W 000°09'612.9
2017-Nov-17 12:30N 50°32' E 000°01'612.7
2017-Nov-17 12:00N 50°34' E 000°10'612.5
2017-Nov-17 11:30N 50°35' E 000°20'612.0
2017-Nov-17 11:01N 50°37' E 000°29'611.5
2017-Nov-17 10:31N 50°40' E 000°37'611.3
2017-Nov-17 10:01N 50°43' E 000°44'611.2
2017-Nov-17 09:31N 50°46' E 000°51'510.9
2017-Nov-17 09:00N 50°49' E 000°58'611.0
2017-Nov-17 08:31N 50°52' E 001°05'611.7
2017-Nov-17 08:01N 50°56' E 001°12'713.2
2017-Nov-17 07:29N 51°01' E 001°21'715.7
2017-Nov-17 07:00N 51°05' E 001°30'816.3
2017-Nov-17 06:30N 51°11' E 001°40'815.0
2017-Nov-17 06:00N 51°16' E 001°48'713.8
2017-Nov-17 05:30N 51°22' E 001°53'612.8
2017-Nov-17 05:00N 51°28' E 001°59'612.0
2017-Nov-17 04:30N 51°33' E 002°04'25410.2
2017-Nov-16 03:36N 54°02' E 007°45'211.3
2017-Nov-16 03:25N 54°02' E 007°48'511.7
2017-Nov-16 03:00N 54°01' E 007°56'711.9
2017-Nov-16 02:26N 54°01' E 008°08'511.2
2017-Nov-16 02:00N 54°00' E 008°16'714.4
2017-Nov-16 01:30N 53°59' E 008°28'714.5
2017-Nov-16 01:00N 53°56' E 008°39'713.4
2017-Nov-16 00:30N 53°51' E 008°46'611.5
2017-Nov-16 00:00N 53°51' E 008°56'510.2
2017-Nov-15 23:30N 53°52' E 009°04'3 6.2
2017-Nov-15 23:01N 53°54' E 009°09'0 0.0
2017-Nov-15 22:31N 53°54' E 009°09'1 1.3
2017-Nov-15 22:00N 53°54' E 009°10'3 5.7
2017-Nov-15 21:31N 53°56' E 009°13'4 7.8
2017-Nov-15 21:01N 53°59' E 009°17'4 8.2
2017-Nov-15 20:31N 54°03' E 009°18'4 8.1
2017-Nov-15 20:01N 54°07' E 009°20'3 5.3
2017-Nov-15 19:31N 54°09' E 009°23'3 6.9
2017-Nov-15 19:01N 54°11' E 009°28'3 6.4
2017-Nov-15 18:31N 54°12' E 009°33'0 0.0
2017-Nov-15 18:00N 54°12' E 009°33'1 1.2
2017-Nov-15 17:30N 54°12' E 009°34'3 6.0
2017-Nov-15 17:01N 54°15' E 009°37'4 7.3
2017-Nov-15 16:31N 54°18' E 009°41'4 7.1
2017-Nov-15 16:01N 54°20' E 009°45'21 4.3
2017-Nov-15 11:09N 54°30' E 010°17'1 9.8
2017-Nov-15 11:00N 54°30' E 010°19'610.8
2017-Nov-15 10:29N 54°32' E 010°28'511.3
2017-Nov-15 10:01N 54°34' E 010°36'611.6
2017-Nov-15 09:31N 54°35' E 010°46'611.7
2017-Nov-15 09:01N 54°36' E 010°56'612.0
2017-Nov-15 08:31N 54°36' E 011°07'611.4
2017-Nov-15 08:00N 54°35' E 011°16'611.3
2017-Nov-15 07:31N 54°32' E 011°25'510.8
2017-Nov-15 07:01N 54°30' E 011°33'611.1
2017-Nov-15 06:30N 54°27' E 011°42'811.0
2017-Nov-15 05:46N 54°26' E 011°56'311.0
2017-Nov-15 05:30N 54°26' E 012°01'611.0
2017-Nov-15 05:00N 54°28' E 012°10'611.3
2017-Nov-15 04:31N 54°33' E 012°13'2110.7
2017-Nov-15 02:33N 54°46' E 012°41'411.0
2017-Nov-15 02:11N 54°47' E 012°48'  

Dump ship's entire track history